Time;durP1;ratioP1;P1;durP2;ratioP2;P2;SDS_P1;SDS_P2;PMS_P1;PMS_P2;Temp;Humidity;BMP_temperature;BMP_pressure;BME280_temperature;BME280_humidity;BME280_pressure;Samples;Min_cycle;Max_cycle;Signal;HPM_P1;HPM_P2
2022/04/04 00:00:38;;;;;;;2.40;2.20;;;16.50;48.90;17.50;101138.00;;;;4987938;28;20203;-49
2022/04/04 00:03:04;;;;;;;2.50;2.30;;;16.40;48.80;17.50;101136.00;;;;4987923;28;20177;-49
2022/04/04 00:05:30;;;;;;;2.33;2.13;;;16.40;48.90;17.50;101129.00;;;;4987905;28;20180;-50
2022/04/04 00:07:56;;;;;;;2.40;2.20;;;16.40;48.90;17.50;101130.00;;;;4988224;28;20176;-49
2022/04/04 00:10:22;;;;;;;2.20;2.00;;;16.40;49.00;17.50;101129.00;;;;4987373;28;20204;-51
2022/04/04 00:12:47;;;;;;;2.30;2.10;;;16.40;49.00;17.40;101120.00;;;;4987952;28;20168;-49
2022/04/04 00:15:13;;;;;;;2.03;1.93;;;16.40;49.10;17.40;101121.00;;;;4987487;28;20183;-50
2022/04/04 00:17:39;;;;;;;2.40;2.20;;;16.30;49.00;17.40;101125.00;;;;4987344;28;20668;-49
2022/04/04 00:20:07;;;;;;;2.30;2.10;;;16.30;49.00;17.30;101122.00;;;;4987600;28;20201;-50
2022/04/04 00:22:33;;;;;;;2.30;2.10;;;16.30;49.00;17.30;101114.00;;;;4986641;28;20176;-50
2022/04/04 00:24:58;;;;;;;2.30;2.10;;;16.20;49.00;17.30;101131.00;;;;4987266;28;20712;-48
2022/04/04 00:27:24;;;;;;;2.30;2.07;;;16.20;49.00;17.30;101118.00;;;;4986103;28;20200;-50
2022/04/04 00:29:50;;;;;;;2.30;2.10;;;16.20;48.90;17.30;101116.00;;;;4987502;28;20676;-50
2022/04/04 00:32:15;;;;;;;2.37;2.17;;;16.20;49.00;17.20;101114.00;;;;4987366;28;20164;-50
2022/04/04 00:34:41;;;;;;;2.40;2.20;;;16.10;48.90;17.20;101125.00;;;;4987202;28;20246;-50
2022/04/04 00:37:07;;;;;;;2.57;2.00;;;16.10;48.90;17.20;101120.00;;;;4987079;28;20814;-50
2022/04/04 00:39:33;;;;;;;2.30;2.10;;;16.10;48.90;17.20;101107.00;;;;4987435;28;20196;-49
2022/04/04 00:41:58;;;;;;;2.30;2.10;;;16.10;48.90;17.10;101110.00;;;;4987401;28;20290;-49
2022/04/04 00:44:25;;;;;;;2.20;2.00;;;16.10;48.90;17.10;101109.00;;;;4987865;28;20201;-50
2022/04/04 00:46:51;;;;;;;2.20;2.00;;;16.10;49.00;17.10;101099.00;;;;4987739;28;20208;-50
2022/04/04 00:49:17;;;;;;;2.30;2.10;;;16.00;48.90;17.10;101107.00;;;;4987036;28;20684;-50
2022/04/04 00:51:42;;;;;;;2.30;2.10;;;16.00;48.90;17.10;101091.00;;;;4985873;28;20176;-51
2022/04/04 00:54:08;;;;;;;2.30;2.10;;;16.00;48.90;17.10;101101.00;;;;4987790;28;20200;-49
2022/04/04 00:56:35;;;;;;;2.00;1.90;;;16.00;48.90;17.10;101018.00;;;;4986756;28;20700;-50
2022/04/04 00:59:02;;;;;;;2.10;1.90;;;15.90;48.90;17.10;101086.00;;;;4987006;28;20283;-50
2022/04/04 01:01:28;;;;;;;2.20;2.00;;;15.90;49.10;17.10;101080.00;;;;4986940;28;20563;-50
2022/04/04 01:03:54;;;;;;;2.30;2.10;;;15.90;49.00;17.00;101081.00;;;;4986823;28;20688;-50
2022/04/04 01:06:19;;;;;;;2.20;2.00;;;15.80;49.10;17.10;101079.00;;;;4987326;28;20196;-50
2022/04/04 01:08:45;;;;;;;2.10;1.90;;;15.80;49.20;17.00;101075.00;;;;4986931;28;20192;-50
2022/04/04 01:11:11;;;;;;;2.20;2.00;;;15.70;49.10;17.00;101071.00;;;;4986689;28;20735;-50
2022/04/04 01:13:38;;;;;;;2.10;2.00;;;15.70;49.20;17.00;101062.00;;;;4985655;28;20174;-50
2022/04/04 01:16:04;;;;;;;2.23;2.03;;;15.70;49.20;17.00;101062.00;;;;4985106;28;20181;-51
2022/04/04 01:18:29;;;;;;;2.20;2.00;;;15.70;49.20;17.00;101054.00;;;;4986690;28;20184;-50
2022/04/04 01:20:55;;;;;;;1.87;1.77;;;15.70;49.30;16.90;101059.00;;;;4986231;28;20637;-50
2022/04/04 01:23:24;;;;;;;1.93;1.83;;;15.70;49.20;16.90;101051.00;;;;4985883;28;20203;-50
2022/04/04 01:25:50;;;;;;;2.00;1.80;;;15.70;49.30;16.90;101046.00;;;;4986706;28;20294;-51
2022/04/04 01:28:16;;;;;;;2.10;1.90;;;15.60;49.30;16.90;101050.00;;;;4986602;28;20259;-50
2022/04/04 01:30:43;;;;;;;1.80;1.70;;;15.60;49.30;16.90;101048.00;;;;4986760;28;20188;-50
2022/04/04 01:33:09;;;;;;;2.10;2.00;;;15.60;49.30;16.80;101040.00;;;;4986518;28;20189;-50
2022/04/04 01:35:38;;;;;;;1.80;1.70;;;15.60;49.20;16.80;101042.00;;;;4986552;28;20180;-50
2022/04/04 01:38:04;;;;;;;2.00;1.90;;;15.50;49.20;16.80;101044.00;;;;4986529;28;20246;-50
2022/04/04 01:40:29;;;;;;;1.80;1.70;;;15.50;49.80;16.80;101037.00;;;;4986792;28;20204;-50
2022/04/04 01:42:55;;;;;;;2.10;1.90;;;15.50;49.40;16.80;101042.00;;;;4986279;28;20160;-50
2022/04/04 01:46:23;;;;;;;1.90;1.80;;;15.50;49.90;16.80;101036.00;;;;4986987;28;20172;-50
2022/04/04 01:48:08;;;;;;;1.77;1.67;;;15.50;49.40;16.70;101036.00;;;;4986445;28;20215;-50
2022/04/04 01:50:36;;;;;;;2.27;2.07;;;15.40;49.40;16.70;101040.00;;;;4986459;28;20796;-50
2022/04/04 01:55:47;;;;;;;2.00;1.90;;;15.40;49.30;16.60;101032.00;;;;4986204;28;20680;-51
2022/04/04 01:58:12;;;;;;;2.00;1.90;;;15.40;49.30;16.60;101016.00;;;;4985823;28;20184;-50
2022/04/04 02:00:41;;;;;;;1.90;1.80;;;15.40;49.30;16.60;101025.00;;;;4986166;28;20196;-50
2022/04/04 02:03:07;;;;;;;1.90;1.80;;;15.40;49.30;16.60;101016.00;;;;4986081;28;20850;-50
2022/04/04 02:05:32;;;;;;;1.90;1.80;;;15.30;49.10;16.60;101020.00;;;;4986117;28;20169;-50
2022/04/04 02:07:58;;;;;;;1.87;1.77;;;15.30;49.30;16.60;101008.00;;;;4985884;28;20235;-50
2022/04/04 02:10:24;;;;;;;3.30;2.03;;;15.30;49.30;16.60;101003.00;;;;4986021;28;20212;-49
2022/04/04 02:12:49;;;;;;;1.90;1.80;;;15.20;49.30;16.50;101006.00;;;;4986736;28;20807;-49
2022/04/04 02:15:15;;;;;;;2.00;1.90;;;15.20;49.30;16.50;101008.00;;;;4986262;28;20168;-51
2022/04/04 02:17:41;;;;;;;1.80;1.70;;;15.20;49.20;16.50;101006.00;;;;4985687;28;20188;-51
2022/04/04 02:20:08;;;;;;;2.50;1.93;;;15.20;49.40;16.50;101013.00;;;;4985930;28;20827;-51
2022/04/04 02:22:34;;;;;;;1.90;1.80;;;15.20;49.40;16.40;101000.00;;;;4986370;28;20772;-49
2022/04/04 02:25:00;;;;;;;2.23;2.03;;;15.10;49.30;16.40;100994.00;;;;4987708;28;20188;-50
2022/04/04 02:27:26;;;;;;;1.90;1.80;;;15.10;49.40;16.40;100961.00;;;;4987208;28;20731;-50
2022/04/04 02:29:52;;;;;;;2.20;2.00;;;15.10;49.40;16.40;100995.00;;;;4986353;28;20279;-50
2022/04/04 02:32:19;;;;;;;1.73;1.63;;;15.10;49.50;16.40;100986.00;;;;4985930;28;20177;-50
2022/04/04 02:34:45;;;;;;;1.70;1.60;;;15.10;49.30;16.30;100971.00;;;;4989570;28;20172;-50
2022/04/04 02:37:12;;;;;;;2.33;2.10;;;15.10;49.30;16.30;100983.00;;;;4989476;28;20234;-50
2022/04/04 02:39:38;;;;;;;1.90;1.80;;;15.00;49.30;16.30;100972.00;;;;4988334;28;20203;-52
2022/04/04 02:42:04;;;;;;;1.90;1.80;;;15.00;49.30;16.30;100964.00;;;;4989327;28;20732;-50
2022/04/04 02:44:30;;;;;;;1.93;1.80;;;15.00;49.30;16.30;100975.00;;;;4989341;28;20324;-50
2022/04/04 02:46:55;;;;;;;1.90;1.80;;;14.90;50.00;16.30;100961.00;;;;4989047;28;20204;-50
2022/04/04 02:49:21;;;;;;;1.90;1.80;;;15.00;49.50;16.20;100955.00;;;;4989360;28;20196;-50
2022/04/04 02:51:47;;;;;;;3.30;2.13;;;15.00;49.50;16.20;100959.00;;;;4989379;28;20204;-50
2022/04/04 02:54:12;;;;;;;1.87;1.77;;;15.00;49.40;16.20;100945.00;;;;4989229;28;20172;-50
2022/04/04 02:56:41;;;;;;;1.80;1.70;;;14.90;49.40;16.20;100949.00;;;;4987676;28;20172;-49
2022/04/04 02:59:07;;;;;;;2.13;1.97;;;14.90;49.40;16.20;100936.00;;;;4989200;28;20207;-49
2022/04/04 03:01:33;;;;;;;1.80;1.70;;;14.90;49.40;16.20;100936.00;;;;4989196;28;20180;-49
2022/04/04 03:03:59;;;;;;;2.63;1.90;;;14.80;49.30;16.10;100941.00;;;;4989120;28;20813;-51
2022/04/04 03:06:25;;;;;;;2.20;2.00;;;14.80;49.40;16.10;100940.00;;;;4987756;28;20204;-49
2022/04/04 03:08:51;;;;;;;2.00;1.90;;;14.80;49.40;16.10;100929.00;;;;4989045;28;20673;-49
2022/04/04 03:11:17;;;;;;;2.00;1.90;;;14.80;49.40;16.10;100917.00;;;;4988692;28;20168;-49
2022/04/04 03:13:42;;;;;;;2.77;1.70;;;14.80;49.40;16.10;100925.00;;;;4988757;28;20215;-49
2022/04/04 03:16:08;;;;;;;5.90;1.80;;;14.80;49.50;16.00;100919.00;;;;4988753;28;20190;-50
2022/04/04 03:18:35;;;;;;;5.20;2.00;;;14.80;50.00;16.00;100912.00;;;;4989143;28;20187;-50
2022/04/04 03:21:03;;;;;;;3.67;1.90;;;14.80;49.60;16.00;100852.00;;;;4988947;28;20215;-50
2022/04/04 03:23:29;;;;;;;2.70;1.80;;;14.90;50.10;16.00;100911.00;;;;4988680;28;20180;-49
2022/04/04 03:25:54;;;;;;;2.00;1.80;;;14.90;49.70;16.00;100903.00;;;;4988305;28;21005;-50
2022/04/04 03:28:20;;;;;;;3.37;1.87;;;14.80;49.70;16.00;100893.00;;;;4988789;28;20669;-51
2022/04/04 03:30:47;;;;;;;5.20;2.00;;;14.80;49.60;16.00;100901.00;;;;4988824;28;20729;-50
2022/04/04 03:33:12;;;;;;;3.33;2.00;;;14.80;49.40;16.00;100894.00;;;;4988606;28;20219;-49
2022/04/04 03:35:38;;;;;;;5.90;1.90;;;14.80;49.50;16.00;100891.00;;;;4988421;28;20180;-49
2022/04/04 03:38:04;;;;;;;3.13;1.90;;;14.80;49.40;15.90;100892.00;;;;4988282;28;20181;-51
2022/04/04 03:40:30;;;;;;;2.97;2.00;;;14.70;49.10;15.90;100882.00;;;;4988535;28;20759;-50
2022/04/04 03:42:57;;;;;;;3.17;1.97;;;14.70;49.10;15.90;100894.00;;;;4988613;28;20169;-49
2022/04/04 03:45:24;;;;;;;2.27;1.90;;;14.70;49.00;15.90;100881.00;;;;4987751;28;20168;-49
2022/04/04 03:47:50;;;;;;;2.97;2.13;;;14.70;48.90;15.90;100883.00;;;;4988132;28;20764;-50
2022/04/04 03:50:16;;;;;;;2.63;2.20;;;14.70;48.80;15.90;100879.00;;;;4988359;28;20259;-50
2022/04/04 03:52:43;;;;;;;5.20;2.40;;;14.60;48.70;15.90;100866.00;;;;4987551;28;20172;-50
2022/04/04 03:55:09;;;;;;;2.30;2.10;;;14.70;48.80;15.90;100863.00;;;;4987030;28;20760;-51
2022/04/04 03:57:36;;;;;;;3.73;2.20;;;14.70;48.50;15.90;100871.00;;;;4987078;28;20184;-51
2022/04/04 04:00:02;;;;;;;4.27;2.47;;;14.60;48.20;15.80;100855.00;;;;4987496;28;20855;-54
2022/04/04 04:02:28;;;;;;;2.53;2.20;;;14.60;48.40;15.80;100860.00;;;;4987411;28;20181;-50
2022/04/04 04:04:53;;;;;;;4.17;2.20;;;14.50;48.40;15.80;100854.00;;;;4988403;28;20180;-50
2022/04/04 04:07:24;;;;;;;5.17;2.97;;;14.50;48.60;15.80;100852.00;;;;4987568;28;20828;-50
2022/04/04 04:09:51;;;;;;;5.20;2.50;;;14.50;48.80;15.70;100849.00;;;;4987822;28;20898;-50
2022/04/04 04:12:17;;;;;;;3.57;2.50;;;14.50;48.80;15.70;100848.00;;;;4988247;28;20188;-50
2022/04/04 04:14:43;;;;;;;3.20;2.67;;;14.50;48.70;15.70;100844.00;;;;4987751;28;20192;-50
2022/04/04 04:17:09;;;;;;;5.50;2.60;;;14.50;48.90;15.70;100847.00;;;;4987530;28;20638;-50
2022/04/04 04:22:21;;;;;;;3.70;2.60;;;14.50;49.00;15.60;100827.00;;;;4987699;28;20203;-50
2022/04/04 04:24:47;;;;;;;3.87;2.20;;;14.50;49.00;15.60;100817.00;;;;4987848;28;20153;-49
2022/04/04 04:27:13;;;;;;;9.20;2.63;;;14.40;49.00;15.60;100817.00;;;;4987721;28;20719;-50
2022/04/04 04:29:39;;;;;;;5.07;2.53;;;14.50;49.00;15.60;100825.00;;;;4987661;28;20586;-50
2022/04/04 04:32:07;;;;;;;6.23;2.50;;;14.50;49.00;15.60;100807.00;;;;4987415;28;20172;-49
2022/04/04 04:34:34;;;;;;;10.00;2.70;;;14.40;49.10;15.60;100821.00;;;;4987719;28;20172;-50
2022/04/04 04:37:00;;;;;;;6.20;2.50;;;14.40;49.00;15.60;100816.00;;;;4987542;28;20180;-50
2022/04/04 04:39:26;;;;;;;4.97;2.40;;;14.40;48.90;15.50;100812.00;;;;4987589;28;20196;-49
2022/04/04 04:41:52;;;;;;;5.47;2.30;;;14.40;48.90;15.60;100815.00;;;;4984648;28;21908;-50
2022/04/04 04:44:18;;;;;;;4.27;2.67;;;14.40;48.90;15.60;100803.00;;;;4985879;28;20724;-49
2022/04/04 04:46:44;;;;;;;6.53;2.40;;;14.30;48.80;15.50;100799.00;;;;4987064;28;20259;-50
2022/04/04 04:49:10;;;;;;;2.63;2.10;;;14.30;48.90;15.50;100793.00;;;;4986866;28;20196;-49
2022/04/04 04:51:36;;;;;;;3.40;2.27;;;14.30;48.90;15.50;100794.00;;;;4987034;28;20164;-49
2022/04/04 04:54:02;;;;;;;6.43;2.10;;;14.30;48.90;15.50;100787.00;;;;5002013;28;20172;-49
2022/04/04 04:56:28;;;;;;;7.67;2.40;;;14.30;49.20;15.50;100782.00;;;;4986935;28;20190;-50
2022/04/04 04:58:54;;;;;;;3.37;2.20;;;14.30;49.10;15.50;100782.00;;;;4986838;28;20736;-50
2022/04/04 05:01:20;;;;;;;4.30;2.20;;;14.50;49.20;15.50;100777.00;;;;4987018;28;20181;-50
2022/04/04 05:03:46;;;;;;;2.30;1.90;;;14.70;49.00;15.50;100769.00;;;;4986891;28;20625;-49
2022/04/04 05:06:12;;;;;;;4.87;2.30;;;14.90;48.70;15.60;100767.00;;;;4986689;28;20284;-49
2022/04/04 05:08:37;;;;;;;2.40;2.20;;;15.10;48.40;15.70;100769.00;;;;4986598;28;20168;-49
2022/04/04 05:11:03;;;;;;;3.53;2.20;;;15.40;48.00;15.90;100763.00;;;;4986924;28;20223;-50
2022/04/04 05:13:29;;;;;;;3.93;2.00;;;15.70;47.70;16.00;100754.00;;;;4987267;28;20250;-48
2022/04/04 05:15:55;;;;;;;3.43;2.17;;;16.00;47.60;16.20;100759.00;;;;4987177;28;20172;-49
2022/04/04 05:18:21;;;;;;;4.10;2.10;;;16.30;46.80;16.40;100749.00;;;;4986787;28;20537;-49
2022/04/04 05:20:47;;;;;;;3.27;2.33;;;16.60;46.40;16.60;100753.00;;;;4986665;28;20189;-49
2022/04/04 05:23:13;;;;;;;2.23;2.03;;;17.00;46.20;16.90;100750.00;;;;4987004;28;20188;-48
2022/04/04 05:25:40;;;;;;;3.20;2.17;;;17.10;45.80;17.00;100740.00;;;;4987007;28;20207;-49
2022/04/04 05:28:07;;;;;;;2.80;2.20;;;17.30;45.80;17.20;100741.00;;;;4986657;28;20184;-49
2022/04/04 05:30:34;;;;;;;3.47;2.00;;;17.40;45.80;17.30;100738.00;;;;4986468;28;20702;-48
2022/04/04 05:33:00;;;;;;;2.20;1.93;;;17.60;45.80;17.50;100743.00;;;;4987007;28;20187;-50
2022/04/04 05:35:26;;;;;;;2.20;2.00;;;17.60;45.70;17.60;100735.00;;;;4986691;28;20172;-48
2022/04/04 05:37:54;;;;;;;2.40;2.20;;;17.70;45.80;17.70;100733.00;;;;4986532;28;20164;-49
2022/04/04 05:40:24;;;;;;;2.13;1.90;;;17.70;45.70;17.80;100735.00;;;;4986661;28;20696;-49
2022/04/04 05:42:50;;;;;;;2.07;1.80;;;17.70;45.80;17.90;100741.00;;;;4988128;28;20680;-49
2022/04/04 05:45:15;;;;;;;3.90;2.10;;;17.80;45.80;17.90;100737.00;;;;4987698;28;20227;-49
2022/04/04 05:47:41;;;;;;;2.20;2.00;;;17.90;45.80;18.00;100727.00;;;;4986157;28;20703;-49
2022/04/04 05:50:07;;;;;;;2.10;1.90;;;17.90;45.80;18.10;100722.00;;;;4986184;28;20677;-49
2022/04/04 05:52:35;;;;;;;2.20;2.00;;;17.90;45.90;18.10;100723.00;;;;4986606;28;20201;-49
2022/04/04 05:55:04;;;;;;;2.63;1.90;;;18.00;45.90;18.20;100710.00;;;;4986823;28;20168;-49
2022/04/04 05:57:34;;;;;;;2.43;2.00;;;18.00;46.00;18.20;100718.00;;;;4986662;28;20211;-49
2022/04/04 06:00:00;;;;;;;1.80;1.70;;;18.00;46.10;18.30;100722.00;;;;4986281;28;20201;-48
2022/04/04 06:02:27;;;;;;;2.20;2.00;;;18.00;46.20;18.30;100711.00;;;;4986338;28;20393;-51
2022/04/04 06:04:53;;;;;;;3.13;2.00;;;18.00;46.40;18.30;100710.00;;;;4987322;28;20173;-48
2022/04/04 06:07:18;;;;;;;2.20;2.00;;;17.90;46.40;18.30;100707.00;;;;4986623;28;20208;-49
2022/04/04 06:09:45;;;;;;;1.80;1.70;;;17.90;46.60;18.30;100707.00;;;;4989316;28;20228;-50
2022/04/04 06:12:10;;;;;;;2.00;1.80;;;17.80;46.60;18.30;100702.00;;;;4990055;28;20170;-50
2022/04/04 06:14:36;;;;;;;2.10;1.90;;;17.80;46.70;18.30;100694.00;;;;4990088;28;20160;-50
2022/04/04 06:17:06;;;;;;;2.10;1.90;;;17.70;46.90;18.30;100690.00;;;;4990024;28;20200;-49
2022/04/04 06:19:34;;;;;;;2.03;1.83;;;17.60;46.90;18.20;100695.00;;;;4989919;28;20190;-50
2022/04/04 06:22:03;;;;;;;1.90;1.80;;;17.60;47.10;18.20;100682.00;;;;4990274;28;20185;-50
2022/04/04 06:24:30;;;;;;;3.13;1.97;;;17.60;47.30;18.20;100690.00;;;;4989551;28;20347;-50
2022/04/04 06:26:59;;;;;;;1.93;1.70;;;17.50;47.30;18.20;100686.00;;;;4989591;28;20200;-50
2022/04/04 06:29:25;;;;;;;2.47;1.90;;;17.50;47.50;18.10;100673.00;;;;4989231;28;20279;-50
2022/04/04 06:31:51;;;;;;;2.07;1.87;;;17.40;47.50;18.10;100670.00;;;;4988490;28;20157;-49
2022/04/04 06:34:17;;;;;;;3.00;2.00;;;17.40;47.60;18.10;100678.00;;;;4989360;28;20187;-49
2022/04/04 06:36:44;;;;;;;2.80;1.80;;;17.40;47.80;18.10;100677.00;;;;4989616;28;20180;-49
2022/04/04 06:39:10;;;;;;;1.90;1.80;;;17.30;48.10;18.00;100665.00;;;;4989229;28;20202;-48
2022/04/04 06:41:36;;;;;;;2.77;1.80;;;17.30;48.00;18.00;100653.00;;;;4989082;28;20173;-50
2022/04/04 06:44:03;;;;;;;2.93;1.90;;;17.20;47.90;18.00;100653.00;;;;5004264;28;20179;-50
2022/04/04 06:46:29;;;;;;;1.80;1.70;;;17.20;47.90;17.90;100651.00;;;;4989155;28;20235;-50
2022/04/04 06:48:54;;;;;;;2.17;1.80;;;17.10;48.10;17.90;100649.00;;;;4988616;28;20540;-51
2022/04/04 06:51:20;;;;;;;1.97;1.80;;;17.10;48.20;17.90;100645.00;;;;4989099;28;20164;-50
2022/04/04 06:53:46;;;;;;;2.20;1.83;;;17.10;48.50;17.90;100638.00;;;;4988341;28;20173;-50
2022/04/04 06:56:12;;;;;;;2.97;1.80;;;17.20;48.30;17.90;100636.00;;;;4988979;28;20282;-51
2022/04/04 06:58:38;;;;;;;3.20;1.80;;;17.50;48.20;18.00;100624.00;;;;4988502;28;20552;-49
2022/04/04 07:01:04;;;;;;;3.10;1.90;;;17.70;47.50;18.20;100626.00;;;;4989221;28;20165;-49
2022/04/04 07:03:29;;;;;;;2.73;2.00;;;18.00;47.00;18.30;100623.00;;;;4989235;28;20668;-49
2022/04/04 07:05:55;;;;;;;2.63;1.83;;;18.30;46.60;18.40;100621.00;;;;4988938;28;20197;-50
2022/04/04 07:08:21;;;;;;;2.63;1.73;;;18.30;46.50;18.50;100617.00;;;;4989283;28;20208;-48
2022/04/04 07:10:47;;;;;;;1.90;1.70;;;18.40;46.40;18.60;100614.00;;;;4988733;28;20268;-50
2022/04/04 07:13:14;;;;;;;2.77;1.93;;;18.50;46.30;18.70;100612.00;;;;4988215;28;20181;-50
2022/04/04 07:15:41;;;;;;;1.90;1.70;;;18.50;46.30;18.70;100597.00;;;;4989236;28;20844;-49
2022/04/04 07:18:07;;;;;;;1.60;1.50;;;18.50;46.40;18.70;100595.00;;;;4989954;28;20849;-49
2022/04/04 07:20:33;;;;;;;2.57;1.77;;;18.50;46.50;18.80;100587.00;;;;4989796;28;20280;-49
2022/04/04 07:22:59;;;;;;;3.87;1.80;;;18.50;46.80;18.80;100595.00;;;;4989198;28;20265;-49
2022/04/04 07:25:24;;;;;;;7.37;2.17;;;18.40;46.90;18.80;100583.00;;;;4987510;28;20208;-49
2022/04/04 07:27:50;;;;;;;5.43;1.90;;;18.40;47.30;18.80;100575.00;;;;4910606;28;20197;-49
2022/04/04 07:30:17;;;;;;;9.90;2.60;;;18.40;47.70;18.80;100569.00;;;;4988935;28;20203;-49
2022/04/04 07:32:43;;;;;;;10.77;2.40;;;18.30;47.80;18.80;100570.00;;;;4991454;28;20179;-49
2022/04/04 07:35:11;;;;;;;17.03;2.70;;;18.30;47.80;18.80;100558.00;;;;4991216;28;20253;-49
2022/04/04 07:37:41;;;;;;;19.77;2.60;;;18.20;48.00;18.80;100566.00;;;;4990794;28;20179;-49
2022/04/04 07:40:10;;;;;;;8.90;2.00;;;18.20;48.60;18.80;100551.00;;;;4990822;28;20613;-51
2022/04/04 07:42:38;;;;;;;7.47;2.30;;;18.10;48.20;18.80;100558.00;;;;4989909;28;20183;-49
2022/04/04 07:45:08;;;;;;;9.37;2.33;;;18.10;48.10;18.70;100551.00;;;;4991110;28;20178;-50
2022/04/04 07:47:34;;;;;;;5.53;2.00;;;18.10;48.20;18.70;100539.00;;;;4990779;28;20808;-50
2022/04/04 07:50:00;;;;;;;4.50;2.00;;;18.00;48.10;18.70;100544.00;;;;4991013;28;20781;-50
2022/04/04 07:52:27;;;;;;;6.33;2.10;;;18.00;48.10;18.70;100533.00;;;;4990756;28;20223;-49
2022/04/04 07:54:53;;;;;;;4.33;1.77;;;18.00;48.10;18.60;100526.00;;;;4990982;28;20199;-49
2022/04/04 07:57:20;;;;;;;5.90;2.00;;;17.90;48.10;18.60;100528.00;;;;4990572;28;20181;-49
2022/04/04 07:59:46;;;;;;;6.30;2.20;;;17.90;48.20;18.60;100533.00;;;;4991124;28;20675;-51
2022/04/04 08:02:12;;;;;;;4.10;1.93;;;17.80;48.10;18.60;100535.00;;;;4991042;28;20182;-49
2022/04/04 08:04:38;;;;;;;4.83;2.00;;;17.80;48.10;18.50;100524.00;;;;4990631;28;20281;-49
2022/04/04 08:07:05;;;;;;;4.00;1.83;;;17.70;48.00;18.50;100516.00;;;;4990827;28;20210;-50
2022/04/04 08:09:31;;;;;;;2.70;1.70;;;17.70;48.10;18.50;100509.00;;;;4990070;28;20213;-50
2022/04/04 08:11:57;;;;;;;4.10;1.83;;;17.70;48.20;18.50;100506.00;;;;4990562;28;20182;-50
2022/04/04 08:14:23;;;;;;;3.50;1.93;;;17.60;48.20;18.40;100514.00;;;;4990695;28;20168;-50
2022/04/04 08:16:49;;;;;;;3.33;1.80;;;17.60;48.20;18.20;100505.00;;;;4990484;28;20716;-49
2022/04/04 08:19:16;;;;;;;3.30;2.00;;;17.60;48.30;18.40;100507.00;;;;4990291;28;20674;-50
2022/04/04 08:21:42;;;;;;;2.90;1.73;;;17.50;48.10;18.30;100502.00;;;;4995383;28;20177;-50
2022/04/04 08:24:08;;;;;;;3.47;2.00;;;17.50;48.20;18.30;100500.00;;;;4999588;28;20184;-49
2022/04/04 08:26:34;;;;;;;1.97;1.70;;;17.40;48.00;18.10;100473.00;;;;4969882;28;20200;-50
2022/04/04 08:29:00;;;;;;;2.70;1.60;;;17.40;47.90;18.30;100494.00;;;;4933308;28;20211;-49
2022/04/04 08:31:26;;;;;;;1.87;1.70;;;17.40;48.10;18.20;100484.00;;;;4989837;28;20156;-50
2022/04/04 08:33:52;;;;;;;2.87;1.70;;;17.30;48.00;18.20;100478.00;;;;4990607;28;20580;-51
2022/04/04 08:36:18;;;;;;;2.77;1.80;;;17.30;48.00;18.20;100483.00;;;;4990017;28;20184;-49
2022/04/04 08:38:43;;;;;;;2.77;1.80;;;17.30;48.00;18.20;100476.00;;;;4990004;28;20721;-50
2022/04/04 08:41:10;;;;;;;4.07;1.60;;;17.20;47.90;18.10;100466.00;;;;4989916;28;20177;-49
2022/04/04 08:43:43;;;;;;;1.90;1.80;;;17.20;47.90;18.10;100474.00;;;;4989909;28;20609;-50
2022/04/04 08:46:09;;;;;;;3.53;1.67;;;17.20;47.90;18.10;100472.00;;;;4989772;28;20211;-49
2022/04/04 08:48:36;;;;;;;3.40;2.00;;;17.20;47.90;18.10;100473.00;;;;4989825;28;20172;-49
2022/04/04 08:51:02;;;;;;;2.00;1.80;;;17.10;47.80;18.00;100461.00;;;;4989860;28;20797;-49
2022/04/04 08:53:28;;;;;;;1.70;1.60;;;17.10;47.80;18.00;100456.00;;;;4990406;28;20180;-49
2022/04/04 08:55:57;;;;;;;1.93;1.73;;;17.10;47.80;18.00;100460.00;;;;4990274;28;20256;-49
2022/04/04 08:58:24;;;;;;;3.67;1.70;;;17.00;47.80;17.90;100448.00;;;;4989239;28;20179;-49
2022/04/04 09:00:50;;;;;;;2.47;1.93;;;17.00;47.80;17.90;100461.00;;;;4990006;28;20196;-49
2022/04/04 09:03:21;;;;;;;2.00;1.50;;;17.00;47.80;17.90;100458.00;;;;4989597;28;20224;-49
2022/04/04 09:05:54;;;;;;;1.90;1.70;;;17.00;47.80;17.90;100440.00;;;;4989967;28;20226;-49
2022/04/04 09:08:20;;;;;;;1.67;1.50;;;16.90;47.70;17.90;100446.00;;;;4988125;28;20188;-49
2022/04/04 09:10:47;;;;;;;2.07;1.67;;;16.90;47.70;17.90;100440.00;;;;4988204;28;20227;-49
2022/04/04 09:13:15;;;;;;;2.13;1.60;;;16.90;47.70;17.80;100434.00;;;;4989538;28;20176;-49
2022/04/04 09:16:06;;;;;;;1.70;1.57;;;16.90;47.70;17.80;100426.00;;;;4988211;28;20202;-49
2022/04/04 09:18:39;;;;;;;1.97;1.70;;;16.80;47.60;17.80;100415.00;;;;4989554;28;20172;-50
2022/04/04 09:21:12;;;;;;;2.40;1.77;;;16.80;47.60;17.80;100341.00;;;;4989491;28;20548;-49
2022/04/04 09:23:46;;;;;;;2.33;1.70;;;16.80;47.80;17.70;100406.00;;;;5009278;28;20256;-49
2022/04/04 09:26:43;;;;;;;1.87;1.57;;;16.80;47.90;17.30;100411.00;;;;5008196;28;20783;-49
2022/04/04 09:29:17;;;;;;;2.43;1.50;;;16.70;47.50;17.70;100396.00;;;;4965099;28;20216;-49
2022/04/04 09:32:05;;;;;;;5.30;1.70;;;16.70;47.90;17.70;100406.00;;;;4989783;28;20172;-49
2022/04/04 09:35:02;;;;;;;3.90;1.77;;;16.70;47.80;17.60;100376.00;;;;4990323;28;20180;-49
2022/04/04 09:37:30;;;;;;;9.57;2.17;;;16.70;48.80;17.60;100368.00;;;;4989105;28;20176;-48
2022/04/04 09:40:18;;;;;;;12.93;2.40;;;16.70;49.50;17.60;100362.00;;;;4989224;28;20187;-49
2022/04/04 09:42:57;;;;;;;8.10;2.37;;;16.80;50.80;17.60;100373.00;;;;4988714;28;20173;-50
2022/04/04 09:45:25;;;;;;;9.93;2.20;;;16.80;51.10;17.70;100365.00;;;;4989218;28;20634;-50
2022/04/04 09:48:00;;;;;;;9.73;2.17;;;17.00;50.70;17.80;100362.00;;;;4989208;28;20239;-49
2022/04/04 09:50:46;;;;;;;10.57;1.93;;;17.30;50.10;18.00;100366.00;;;;4988817;28;20195;-49
2022/04/04 09:53:29;;;;;;;5.90;2.17;;;17.80;49.40;18.10;100342.00;;;;4988971;28;20595;-49
2022/04/04 09:55:57;;;;;;;10.10;2.17;;;18.10;48.70;18.10;100343.00;;;;4989141;28;20165;-49
2022/04/04 09:58:28;;;;;;;11.27;2.23;;;18.40;48.40;18.50;100334.00;;;;4989264;28;20641;-49
2022/04/04 10:00:55;;;;;;;5.53;1.90;;;18.60;47.90;18.70;100340.00;;;;4987933;28;20199;-49
2022/04/04 10:03:22;;;;;;;8.50;2.37;;;18.70;47.70;18.80;100337.00;;;;4988729;28;20192;-49
2022/04/04 10:05:56;;;;;;;7.00;2.00;;;18.80;47.40;18.90;100324.00;;;;4986586;28;20236;-50
2022/04/04 10:08:24;;;;;;;4.73;2.00;;;18.80;47.30;19.00;100324.00;;;;4987543;28;20175;-50
2022/04/04 10:10:50;;;;;;;4.83;1.97;;;18.80;47.30;19.00;100311.00;;;;4988107;28;20234;-50
2022/04/04 10:13:16;;;;;;;4.60;2.23;;;18.80;47.20;19.10;100308.00;;;;4987514;28;20183;-49
2022/04/04 10:15:42;;;;;;;4.33;1.90;;;18.90;47.30;19.20;100300.00;;;;4987613;28;20202;-50
2022/04/04 10:18:08;;;;;;;3.67;1.80;;;18.90;47.20;19.20;100311.00;;;;4988426;28;20176;-49
2022/04/04 10:20:34;;;;;;;5.20;2.20;;;18.90;47.20;19.20;100311.00;;;;4988812;28;20777;-50
2022/04/04 10:23:00;;;;;;;4.90;1.57;;;18.80;47.40;19.20;100319.00;;;;4987920;28;20180;-49
2022/04/04 10:25:28;;;;;;;3.77;1.73;;;18.70;47.30;19.20;100311.00;;;;4987962;28;20186;-50
2022/04/04 10:27:54;;;;;;;3.23;1.87;;;18.70;47.40;19.20;100309.00;;;;4800650;28;20194;-50
2022/04/04 10:30:35;;;;;;;5.30;1.83;;;18.60;47.20;19.20;100308.00;;;;4974948;28;20195;-50
2022/04/04 10:33:01;;;;;;;2.67;1.60;;;18.60;47.50;19.20;100310.00;;;;4978454;28;20180;-50
2022/04/04 10:35:29;;;;;;;3.53;1.97;;;18.60;47.70;19.20;100294.00;;;;4992864;28;20173;-50
2022/04/04 10:38:03;;;;;;;2.57;1.90;;;18.50;47.90;19.20;100305.00;;;;4991152;28;20179;-49
2022/04/04 10:40:32;;;;;;;3.47;1.60;;;18.50;47.80;19.20;100293.00;;;;4989565;28;20207;-49
2022/04/04 10:43:10;;;;;;;4.33;1.67;;;18.50;47.90;19.20;100291.00;;;;4988627;28;20179;-50
2022/04/04 10:46:02;;;;;;;3.10;1.70;;;18.50;48.00;19.20;100282.00;;;;4988299;28;20213;-51
2022/04/04 10:48:29;;;;;;;2.33;1.50;;;18.50;48.10;19.20;100284.00;;;;4988941;28;20251;-49
2022/04/04 10:51:21;;;;;;;2.07;1.50;;;18.40;48.10;19.20;100287.00;;;;4988635;28;20180;-50
2022/04/04 10:53:53;;;;;;;1.60;1.50;;;18.40;48.10;19.10;100275.00;;;;4987401;28;20186;-50